Eland, WI (54427)

6:03 PM CST on December 03, 2016 (GMT -0600)
Wittenberg Wi. | | Change Station
Active Advisory: Winter Weather Advisory

Elev 1191 ft 44.83 °N, 89.17 °W | Updated 10 seconds ago

Overcast
Overcast
29.5 °F
Feels Like 30 °F
N
0.0
Wind Variable Wind from SE
Gusts 0.0 mph

Today
High -- | Low -- °F
--% Chance of Precip.
Yesterday
High -- | Low -- °F
Precip. -- in
Pressure 30.24 in
Visibility 10.0 miles
Clouds Overcast 1700 ft
Windchill 30 °F
Dew Point 22 °F
Humidity 73%
Rainfall 0.00 in
Snow Depth Not available.
7:17 AM 4:16 PM
Waxing Crescent, 18% visible
METAR KAIG 032355Z AUTO 00000KT 10SM OVC017 M03/M06 A3024 RMK AO2 T10311064 11022 21031
Pressure 30.24 in
Visibility 10.0 miles
Clouds Overcast 1700 ft
Windchill 30 °F
Dew Point 22 °F
Humidity 73%
Rainfall 0.00 in
Snow Depth Not available.
7:17 AM 4:16 PM
Waxing Crescent, 18% visible
METAR KAIG 032355Z AUTO 00000KT 10SM OVC017 M03/M06 A3024 RMK AO2 T10311064 11022 21031

10-Day Weather Forecast

Almanac

Astronomy

Dec. 03, 2016 Rise Set
Actual Time
Civil Twilight
Nautical Twilight
Astronomical Twilight
Moon
Length of Visible Light
Length of Day
Tomorrow will be .
, % of the Moon is Illuminated

Today's Extremes

State Highs State Lows

Community

WunderPhotos

Upload Photos

1,955,536 photos uploaded!

WunderBlog® & News

Nearby

Air Quality

  Air Quality AQ Index Pollutant
Not available.

Snow Depth

Station Depth Elevation

Earthquake Activity

City Distance Mag. Time & Date
Minimum magnitude displayed is 2.5.

Coastal Water Temperatures

Place Temperature

Stations

Nearby Weather Stations

Station Location Temp. Windchill Dew Point Humidity Wind Precip. Elev Updated Type
                   

Watches & Warnings

Winter Weather Advisory
Issued: 2:36 PM CST Dec. 3, 2016 – National Weather Service

... Winter Weather Advisory in effect from 9 am to 6 PM CST
Sunday...

The National Weather Service in Green Bay has issued a Winter
Weather Advisory for snow... which is in effect from 9 am to 6 PM
CST Sunday.

* Snow will arrive on Sunday morning and end on Sunday evening.
The heaviest snow will arrive during Sunday afternoon.

* Snow accumulations of 1 to 3 inches will be possible. Locally
higher amounts are possible west of the Fox Valley. Rain may mix
with the snow along the Lake Michigan shoreline.

* This snow will lead to slippery and snow covered roadways, and
difficult traveling conditions. Air travel delays are also
possible.

Precautionary/preparedness actions...

A Winter Weather Advisory for snow means that periods of snow
will cause some travel difficulties. Be prepared for snow covered
roads and limited visibilities... and use caution while driving.
The latest Wisconsin Road conditions can be obtained by calling
511.



Mpc